II11 weather

Pelz Port Airport
Grabill, Indiana, United States

Public forecast

Using degrees Fahrenheit for public forecast. Weather courtesy of forecast.io.

METAR (pilot weather report)

Closest report is De Kalb County Airport, 6.8 nm (12.6 km) NNW. Retrieved 2019/04/25 11:35 UTC (0 seconds ago):

KGWB 251135Z AUTO 11003KT 10SM BKN014 OVC021 10/07 A2985 RMK AO2

TAF (pilot weather forecast)

Closest forecast is Fort Wayne International Airport, 16.8 nm (31.2 km) SW. Retrieved 2019/04/25 06:24 UTC (5 hours ago):

TAF KFWA 250522Z 2506/2606 16007KT P6SM VCSH OVC030 FM250900 12004KT P6SM VCSH OVC017 FM251200 14004KT P6SM VCSH OVC008 FM260200 34008KT 5SM -SHRA BR OVC006